createdAt,value
2022-10-11T00:02:34.522Z,100922.78
2022-10-11T00:07:58.708Z,100911.53
2022-10-11T00:13:23.088Z,100923.88
2022-10-11T00:18:49.196Z,100925.75
2022-10-11T00:24:13.727Z,100923.00
2022-10-11T00:29:40.562Z,100917.81
2022-10-11T00:35:06.714Z,100926.13
2022-10-11T00:40:31.050Z,100929.88
2022-10-11T00:46:05.874Z,100937.59
2022-10-11T00:51:40.442Z,100932.78
2022-10-11T00:57:08.582Z,100934.44
2022-10-11T01:02:32.543Z,100936.09
2022-10-11T01:07:59.760Z,100939.00
2022-10-11T01:13:36.624Z,100943.19
2022-10-11T01:19:10.221Z,100946.31
2022-10-11T01:25:06.209Z,100940.69
2022-10-11T01:30:36.204Z,100941.53
2022-10-11T01:36:08.823Z,100954.44
2022-10-11T01:41:39.531Z,100956.97
2022-10-11T01:47:05.693Z,100967.78
2022-10-11T01:52:33.489Z,100961.13
2022-10-11T01:58:14.361Z,100962.34
2022-10-11T02:03:48.901Z,100968.22
2022-10-11T02:09:18.980Z,100970.28
2022-10-11T02:14:47.569Z,100974.44
2022-10-11T02:20:19.867Z,100983.56
2022-10-11T02:25:46.789Z,100992.28
2022-10-11T02:31:13.661Z,100988.94
2022-10-11T02:36:49.246Z,100996.34
2022-10-11T02:42:18.986Z,101010.06
2022-10-11T02:47:43.732Z,100996.66
2022-10-11T02:53:10.211Z,101007.03
2022-10-11T02:58:34.277Z,101002.66
2022-10-11T03:04:00.419Z,101001.38
2022-10-11T03:09:25.615Z,101000.75
2022-10-11T03:14:49.150Z,101015.72
2022-10-11T03:20:13.903Z,101007.41
2022-10-11T03:25:41.457Z,101011.59
2022-10-11T03:31:05.937Z,101008.88
2022-10-11T03:36:30.635Z,101004.50
2022-10-11T03:41:55.770Z,101005.91
2022-10-11T03:47:20.356Z,101009.84
2022-10-11T03:52:45.954Z,101009.47
2022-10-11T03:58:12.437Z,101007.59
2022-10-11T04:03:39.581Z,101011.97
2022-10-11T04:09:05.105Z,101017.38
2022-10-11T04:14:30.487Z,101021.13
2022-10-11T04:19:54.055Z,101022.34
2022-10-11T04:25:20.361Z,101020.09
2022-10-11T04:30:48.645Z,101024.47
2022-10-11T04:36:13.559Z,101040.72
2022-10-11T04:41:38.349Z,101038.66
2022-10-11T04:47:05.708Z,101045.75
2022-10-11T04:52:30.122Z,101046.78
2022-10-11T04:57:54.934Z,101045.94
2022-10-11T05:03:24.885Z,101056.22
2022-10-11T05:08:50.481Z,101067.16
2022-10-11T05:14:14.725Z,101060.38
2022-10-11T05:19:39.944Z,101064.03
2022-10-11T05:25:03.864Z,101066.88
2022-10-11T05:30:27.856Z,101080.78
2022-10-11T05:35:53.408Z,101072.91
2022-10-11T05:41:17.771Z,101070.38
2022-10-11T05:46:41.949Z,101078.94
2022-10-11T05:52:09.236Z,101082.72
2022-10-11T05:57:33.848Z,101078.13
2022-10-11T06:02:59.512Z,101074.47
2022-10-11T06:08:25.464Z,101069.41
2022-10-11T06:13:50.343Z,101062.66
2022-10-11T06:19:14.874Z,101064.88
2022-10-11T06:24:40.490Z,101074.69
2022-10-11T06:30:07.443Z,101067.53
2022-10-11T06:35:31.826Z,101068.88
2022-10-11T06:40:59.436Z,101078.44
2022-10-11T06:46:28.817Z,101081.84
2022-10-11T06:51:53.533Z,101082.00
2022-10-11T06:57:20.308Z,101094.00
2022-10-11T07:02:45.606Z,101100.50
2022-10-11T07:08:10.393Z,101107.66
2022-10-11T07:13:37.037Z,101105.16
2022-10-11T07:19:04.744Z,101107.19
2022-10-11T07:24:30.371Z,101111.78
2022-10-11T07:29:56.211Z,101103.09
2022-10-11T07:35:20.995Z,101107.56
2022-10-11T07:40:47.076Z,101106.13
2022-10-11T07:46:13.265Z,101098.94
2022-10-11T07:51:37.673Z,101092.03
2022-10-11T07:57:05.625Z,101076.34
2022-10-11T08:02:34.230Z,101077.53
2022-10-11T08:07:59.499Z,101078.84
2022-10-11T08:13:24.718Z,101085.44
2022-10-11T08:18:51.395Z,101077.88
2022-10-11T08:24:16.651Z,101087.66
2022-10-11T08:29:42.172Z,101079.63
2022-10-11T08:35:09.365Z,101080.47
2022-10-11T08:40:36.696Z,101078.78
2022-10-11T08:46:05.739Z,101084.84
2022-10-11T08:51:38.067Z,101075.56
2022-10-11T08:57:05.123Z,101068.88
2022-10-11T09:03:06.418Z,101075.41
2022-10-11T09:08:36.461Z,101078.75
2022-10-11T09:14:13.202Z,101083.28
2022-10-11T09:20:03.376Z,101078.81
2022-10-11T09:25:32.704Z,101063.06
2022-10-11T09:30:59.640Z,101074.34
2022-10-11T09:36:30.276Z,101078.81
2022-10-11T09:42:00.516Z,101076.13
2022-10-11T09:47:28.474Z,101084.66
2022-10-11T09:52:54.236Z,101070.41
2022-10-11T09:58:30.387Z,101065.59
2022-10-11T10:04:07.585Z,101069.94
2022-10-11T10:09:33.111Z,101068.25
2022-10-11T10:15:08.064Z,101074.94
2022-10-11T10:20:34.754Z,101068.84
2022-10-11T10:26:14.841Z,101074.97
2022-10-11T10:37:39.970Z,101079.78
2022-10-11T10:43:04.090Z,101089.03
2022-10-11T10:49:02.006Z,101068.06
2022-10-11T10:54:33.275Z,101072.13
2022-10-11T11:00:14.015Z,101071.13
2022-10-11T11:05:48.987Z,101070.22
2022-10-11T11:11:28.378Z,101067.03
2022-10-11T11:16:59.396Z,101076.91
2022-10-11T11:22:35.928Z,101073.63
2022-10-11T11:28:19.639Z,101071.28
2022-10-11T11:33:55.836Z,101085.28
2022-10-11T11:39:25.314Z,101073.50
2022-10-11T11:44:50.865Z,101082.53
2022-10-11T11:50:22.644Z,101078.28
2022-10-11T11:55:54.908Z,101078.47
2022-10-11T12:01:30.982Z,101081.97
2022-10-11T12:07:18.575Z,101091.38
2022-10-11T12:12:44.668Z,101089.13
2022-10-11T12:18:18.015Z,101085.88
2022-10-11T12:23:48.722Z,101086.72
2022-10-11T12:29:44.099Z,101094.84
2022-10-11T12:35:44.818Z,101086.13
2022-10-11T12:41:50.127Z,101095.34
2022-10-11T12:47:32.880Z,101098.84
2022-10-11T12:53:05.729Z,101096.38
2022-10-11T12:58:38.412Z,101101.16
2022-10-11T13:04:08.170Z,101101.31
2022-10-11T13:09:36.504Z,101103.00
2022-10-11T13:15:07.526Z,101101.84
2022-10-11T13:20:38.864Z,101099.75
2022-10-11T13:26:06.201Z,101100.28
2022-10-11T13:31:31.147Z,101105.16
2022-10-11T13:36:57.976Z,101110.38
2022-10-11T13:42:28.562Z,101110.84
2022-10-11T13:47:53.980Z,101121.13
2022-10-11T13:53:25.644Z,101127.56
2022-10-11T13:58:49.831Z,101135.97
2022-10-11T14:04:15.586Z,101133.97
2022-10-11T14:09:48.844Z,101125.91
2022-10-11T14:15:25.444Z,101131.63
2022-10-11T14:20:49.582Z,101139.38
2022-10-11T14:26:18.669Z,101135.44
2022-10-11T14:31:42.929Z,101142.94
2022-10-11T14:37:07.602Z,101143.06
2022-10-11T14:42:33.548Z,101154.72
2022-10-11T14:47:57.442Z,101149.97
2022-10-11T14:53:25.161Z,101152.03
2022-10-11T14:58:53.501Z,101163.53
2022-10-11T15:04:17.831Z,101169.91
2022-10-11T15:09:42.006Z,101180.81
2022-10-11T15:15:08.404Z,101186.09
2022-10-11T15:20:35.108Z,101194.16
2022-10-11T15:26:00.122Z,101195.53
2022-10-11T15:31:25.393Z,101203.44
2022-10-11T15:36:50.034Z,101202.66
2022-10-11T15:42:14.163Z,101218.44
2022-10-11T15:47:40.143Z,101218.91
2022-10-11T15:53:09.176Z,101221.66
2022-10-11T15:58:33.657Z,101233.19
2022-10-11T16:03:59.461Z,101234.25
2022-10-11T16:09:24.553Z,101244.09
2022-10-11T16:14:49.160Z,101242.44
2022-10-11T16:20:15.945Z,101251.31
2022-10-11T16:25:42.537Z,101248.03
2022-10-11T16:31:11.204Z,101247.69
2022-10-11T16:36:40.114Z,101251.50
2022-10-11T16:42:04.378Z,101260.75
2022-10-11T16:47:29.009Z,101265.59
2022-10-11T16:52:55.478Z,101259.94
2022-10-11T16:58:19.421Z,101265.88
2022-10-11T17:03:45.147Z,101262.06
2022-10-11T17:09:15.920Z,101265.09
2022-10-11T17:14:42.364Z,101269.31
2022-10-11T17:20:07.728Z,101265.56
2022-10-11T17:25:33.204Z,101267.03
2022-10-11T17:30:59.532Z,101266.50
2022-10-11T17:36:27.818Z,101270.06
2022-10-11T17:41:53.554Z,101268.22
2022-10-11T17:47:18.209Z,101269.53
2022-10-11T17:52:42.564Z,101272.72
2022-10-11T17:58:08.021Z,101267.94
2022-10-11T18:03:33.553Z,101271.91
2022-10-11T18:09:01.610Z,101267.34
2022-10-11T18:14:27.797Z,101276.84
2022-10-11T18:19:53.230Z,101284.88
2022-10-11T18:25:18.496Z,101277.59
2022-10-11T18:30:44.748Z,101281.16
2022-10-11T18:36:11.049Z,101281.63
2022-10-11T18:41:36.817Z,101285.88
2022-10-11T18:47:01.876Z,101291.94
2022-10-11T18:52:28.064Z,101295.75
2022-10-11T18:57:54.247Z,101295.59
2022-10-11T19:03:19.164Z,101287.41
2022-10-11T19:08:44.617Z,101293.13
2022-10-11T19:14:12.205Z,101287.28
2022-10-11T19:19:37.883Z,101290.22
2022-10-11T19:25:02.399Z,101298.63
2022-10-11T19:30:27.274Z,101293.41
2022-10-11T19:35:57.014Z,101302.81
2022-10-11T19:41:21.973Z,101314.34
2022-10-11T19:46:53.609Z,101310.75
2022-10-11T19:52:19.801Z,101311.09
2022-10-11T19:57:43.774Z,101310.25
2022-10-11T20:03:10.888Z,101312.28
2022-10-11T20:08:37.742Z,101325.22
2022-10-11T20:14:03.706Z,101328.13
2022-10-11T20:19:31.439Z,101318.03
2022-10-11T20:24:57.474Z,101324.50
2022-10-11T20:30:21.412Z,101327.50
2022-10-11T20:35:45.978Z,101319.13
2022-10-11T20:41:14.241Z,101324.16
2022-10-11T20:46:40.697Z,101329.09
2022-10-11T20:52:06.067Z,101326.16
2022-10-11T20:57:32.902Z,101328.34
2022-10-11T21:02:57.545Z,101338.94
2022-10-11T21:08:22.309Z,101335.72
2022-10-11T21:13:48.333Z,101331.94
2022-10-11T21:19:16.917Z,101330.28
2022-10-11T21:24:46.099Z,101334.88
2022-10-11T21:30:12.638Z,101325.25
2022-10-11T21:35:40.229Z,101334.75
2022-10-11T21:41:04.755Z,101314.72
2022-10-11T21:47:01.163Z,101330.94
2022-10-11T21:52:17.974Z,101335.66
2022-10-11T21:57:43.728Z,101341.00
2022-10-11T22:03:09.369Z,101337.31
2022-10-11T22:08:33.997Z,101353.56
2022-10-11T22:13:57.786Z,101357.50
2022-10-11T22:19:23.395Z,101361.44
2022-10-11T22:24:49.246Z,101371.78
2022-10-11T22:30:13.965Z,101369.81
2022-10-11T22:35:39.705Z,101366.63
2022-10-11T22:41:03.690Z,101375.34
2022-10-11T22:46:28.222Z,101371.88
2022-10-11T22:51:54.113Z,101374.41
2022-10-11T22:57:18.312Z,101375.16
2022-10-11T23:02:43.025Z,101379.19
2022-10-11T23:08:09.672Z,101369.94
2022-10-11T23:13:34.226Z,101388.63
2022-10-11T23:18:58.192Z,101382.09
2022-10-11T23:24:24.697Z,101387.88
2022-10-11T23:29:49.244Z,101384.50
2022-10-11T23:35:13.741Z,101383.16
2022-10-11T23:40:39.825Z,101379.81
2022-10-11T23:46:05.795Z,101386.91
2022-10-11T23:51:29.393Z,101389.34
2022-10-11T23:56:54.707Z,101391.56
